Main page
METAR-TAF:

METAR-TAF

Airports :

Cairo International Airport

Cairo, Egypt

latitude: 30-08N, longitude: 031-24E, elevation: 64 m

Current weather observation

The report was made 24 minutes ago, at 21:30 UTC
Wind 10 kt from the Northeast
Temperature 27°C
Humidity 62%
Pressure 1011 hPa
Visibility 10 km or more
no clouds below 1500 m and no cumulonimbus

METAR: HECA 172130Z 04010KT CAVOK 27/19 Q1011 NOSIG

Time: 23:54 (21:54 UTC)

Forecast

The report was made 4 hours and 54 minutes ago, at 17:00 UTC
Forecast valid from 17 at 18 UTC to 18 at 24 UTC
Wind 10 kt from the Northeast
Visibility 10 km or more
no clouds below 1500 m and no cumulonimbus
Becoming
from 18 at 07 UTC to 18 at 09 UTC
Wind 8 kt from the North/Northwest
Becoming
from 18 at 18 UTC to 18 at 20 UTC
Wind 10 kt from the Northeast

TAF: HECA 171700Z 1718/1824 05010KT CAVOK BECMG 1807/1809 34008KT BECMG 1818/1820 04010KT

Weather observations and forecasts of more than 4000 airports (METAR and TAF reports).

The available stations are represented by yellow and red dots on the map.

Hover mouse over dot to see the name of the station.

Then click to see weather observations and forecasts.

To change the map : click on the green buttons with a black cross to zoom in, on the green button with a dash to zoom out, or on the green arrows for adjacent maps.


METAR-TAF: